Julien Rousseau

Chief Scout - OGC Nice
17 Feb 2028
Thursday
Process

Personality

Adaptability (6) Ambition (15) Controversy (19) Loyalty (4) Pressure (16) Professionalism (16) Sportsmanship (16) Temperament (8)

Profile

Coaching Style Democratic
License Continental C
Determination 10
Man Management 13
Motivating 12
Discipline 7
Job Satisfaction
100%
Fatigue
0%
Role Chief Scout
Wage 33.7K p/w
Contract 14.03.2030

Performance

Behaviour Good
Training Effectiveness
58%
Player Development
40%
Injury Prevention
55%
Tactical Implementation
70%

Recent Events

Attended a recruitment meeting now
Attended a recruitment meeting now
Attended a recruitment meeting now
Recommended a transfer target now
Attended a recruitment meeting now
Recommended a transfer target 7d ago
Recommended a transfer target 7d ago
Assessed a player 7d ago

Currently Monitoring

151
Player Club Status Ability Confidence Watched Last Observed Latest Vote
Enzo Koffi Le Havre AC Active 113 / 124 40% 2 08.02.2028 -
Saman Rezaeian Gostaresh Foulad Active 101 / 129 40% 1 08.02.2028 -
Ilan Kebbal Paris FC Report Ready 137 / 138 83% 1 31.01.2028 Approve
Trey Nyoni Rotherham United Active 134 / 148 40% 4 26.01.2028 -
Daniel Banjaqui Benfica Active 121 / 137 40% 3 26.01.2028 -
Keagan Phiri Platinum Stars Active 111 / 97 40% 1 26.01.2028 -
Émile Fontaine Chamois Niortais Active 118 / 131 40% 3 17.01.2028 -
David Valencia Alianza Petrolera Active 125 / 134 40% 7 17.01.2028 -
Majid Rezaeian Rah Ahan Active 108 / 109 40% 1 17.01.2028 -
Yassir Zabiri Stade Rennais Report Ready 142 / 149 83% 1 10.01.2028 Approve
Jofre Torrents Ajax Active 129 / 141 40% 8 02.01.2028 -
Jorrel Hato Chelsea Active 153 / 157 40% 4 02.01.2028 -
Esquerdinha Shrewsbury Town Active 123 / 126 40% 2 02.01.2028 -
Mao Hosoya Everton Negotiating 134 / 135 90% 1 01.01.2028 -
Josh King Chelsea Active 143 / 153 40% 8 29.12.2027 -
Ayden Heaven Luton Town Active 149 / 152 40% 9 29.12.2027 -
Noahkai Banks Hamburger SV Active 142 / 135 40% 1 29.12.2027 -
Louis Leroux FC Nantes Active 134 / 137 40% 6 28.12.2027 -
Josh Nichols Tranmere Rovers Active 123 / 123 40% 5 28.12.2027 -
Tiago Parente Benfica Active 105 / 108 40% 3 26.12.2027 -
Kauã Moraes Cruzeiro Active 125 / 128 40% 7 24.12.2027 -
Christos Mouzakitis Hull City Lost 135 / 143 40% 7 21.12.2027 -
Ronan Kpakio Cardiff City Active 120 / 122 40% 3 20.12.2027 -
Caleb Yirenkyi Coventry City Active 139 / 139 40% 15 19.12.2027 -
Luis Otávio Colorado Rapids Active 107 / 117 40% 5 19.12.2027 -
Hervin Goyes Deportivo Pasto Active 104 / 109 40% 9 18.12.2027 -
Alpha Touré FC Metz Active 116 / 135 40% 5 18.12.2027 -
Jaydee Canvot AJ Auxerre Active 139 / 153 40% 3 15.12.2027 -
Bahia Criciuma Active 112 / 122 40% 3 13.12.2027 -
Mads Bomholt Stabaek Active 114 / 106 40% 3 13.12.2027 -
Myles Lewis-Skelly Birmingham Active 153 / 158 40% 6 10.12.2027 -
Guy Noël Zohouri RC Strasbourg Active 126 / 127 40% 1 07.12.2027 -
Giovanni Leoni Bradford City Active 137 / 148 40% 7 05.12.2027 -
Matteo Pérez Vinlöf Dinamo Zagreb Active 124 / 132 40% 1 03.12.2027 -
Archie Gray Derby County Active 148 / 152 40% 5 25.11.2027 -
Alejandro Almaraz Nueva Chicago Active 111 / 123 40% 5 23.11.2027 -
Khalis Merah Toulouse FC Active 127 / 128 40% 8 22.11.2027 -
Lucas Høgsberg RC Strasbourg Active 139 / 144 40% 6 09.11.2027 -
Ibrahim Coulibaly Clermont Foot Active 111 / 126 40% 1 09.11.2027 -
Nhoa Sangui Chamois Niortais Active 130 / 126 40% 1 08.11.2027 -
Tobias Moi Bodo/Glimt Active 105 / 102 40% 2 07.11.2027 -
Celías Ingenthron Vélez Active 117 / 125 40% 2 03.11.2027 -
Sebastián Ramírez Jaguares Active 108 / 105 40% 3 24.10.2027 -
Andrija Bulatović RC Lens Active 129 / 141 40% 2 23.10.2027 -
Jens Hjertø-Dahl Hull City Active 126 / 125 40% 3 20.10.2027 -
Erawan Garnier Nimes Active 111 / 105 40% 1 17.10.2027 -
David Odogu AC Milan Active 126 / 125 40% 2 15.10.2027 -
Agustín Obregón River Plate Active 111 / 116 40% 2 13.10.2027 -
Nazareno Roselli Defensa y Justicia Active 110 / 115 40% 1 12.10.2027 -
Juan Morán Godoy Cruz Active 109 / 116 40% 2 07.10.2027 -
Johan Manzambi Newcastle United Active 149 / 148 40% 1 06.10.2027 -
Lewis Morgan SuperSport United Active 134 / 121 40% 1 06.07.2027 -
Yousef Salech Cardiff City Active 130 / 120 40% 1 06.07.2027 -
Zian Flemming Ipswich Town Active 131 / 137 40% 1 06.07.2027 -
Dango Ouattara Brentford Active 148 / 149 40% 10 05.07.2027 -
Assane Diao Lazio Active 149 / 159 40% 2 05.07.2027 -
Luis Vázquez Birmingham Active 134 / 134 40% 1 05.07.2027 -
Cheveyo Tsawa Club Brugge Active 117 / 128 40% 3 28.06.2027 -
Juan Giménez Celta Active 119 / 130 40% 1 28.06.2027 -
Sascha Britschgi Padova Active 118 / 123 40% 1 21.06.2027 -
Pedro de la Vega FC Dallas Negotiating 133 / 134 66% 1 01.06.2027 Approve
Maximiliano Araújo Crystal Palace Active 148 / 148 69% 1 01.06.2027 Approve
Nicolò Zaniolo Udinese Active 146 / 149 40% 1 31.05.2027 -
Xavi Simons Tottenham Active 163 / 152 40% 9 30.05.2027 -
Mikkel Damsgaard Brentford Active 151 / 153 40% 2 30.05.2027 -
Kenan Yıldız Juventus Active 159 / 157 40% 3 29.05.2027 -
Carlos Vicente Birmingham Active 143 / 135 40% 10 28.05.2027 -
Kiernan Dewsbury-Hall Everton Active 152 / 155 40% 6 27.05.2027 -
Jack Rudoni Coventry City Active 135 / 136 40% 4 27.05.2027 -
Jacob Ramsey Newcastle United Active 150 / 152 40% 6 26.05.2027 -
Curtis Jones Inter Active 162 / 149 40% 3 26.05.2027 -
Hákon Arnar Haraldsson LOSC Lille Active 148 / 154 40% 4 25.05.2027 -
Morgan Whittaker Middlesbrough Active 134 / 127 40% 3 24.05.2027 -
Florentino Luís Ipswich Town Active 143 / 147 40% 1 24.05.2027 -
Tom Fellows Southampton Active 134 / 125 40% 2 23.05.2027 -
Georginio Rutter Brighton Active 145 / 157 40% 2 22.05.2027 -
Matías Gómez Granada Active 109 / 123 40% 2 21.05.2027 -
Mats Wieffer Brighton Active 152 / 156 40% 1 21.05.2027 -
Toni Tamarit Alverca Active 118 / 122 40% 3 20.05.2027 -
Joaquín Panichelli Le Havre AC Active 144 / 137 40% 11 16.05.2027 -
Harry Wilson Leeds United Active 145 / 146 40% 3 14.05.2027 -
Alejandro Zendejas Club America Active 143 / 148 40% 6 12.05.2027 -
Nicolas Jackson Aston Villa Active 150 / 145 40% 3 11.05.2027 -
Léo Scienza Southampton Active 140 / 134 40% 9 10.05.2027 -
Alexis Saelemaekers AC Milan Active 157 / 147 40% 1 10.05.2027 -
Pape Diong Westerlo Active 109 / 118 40% 2 09.05.2027 -
Matt O'Riley Brighton Active 144 / 151 40% 7 05.05.2027 -
Jesús Ricardo Angulo Toluca Active 136 / 127 40% 8 04.05.2027 -
Félix Lemaréchal Club Brugge Active 136 / 142 40% 10 03.05.2027 -
Giacomo Raspadori Atalanta Active 146 / 149 40% 3 03.05.2027 -
Francisco Conceição Juventus Active 159 / 152 40% 4 02.05.2027 -
Kevin Fulham Active 150 / 139 40% 2 25.04.2027 -
Callum Hudson-Odoi Nottingham Forest Active 149 / 148 40% 2 24.04.2027 -
Dylan Lawlor Cardiff City Active 114 / 114 40% 3 22.04.2027 -
Martim Cunha Porto Active 98 / 117 40% 1 22.04.2027 -
Marco Asensio Fenerbahce Active 157 / 160 40% 7 18.04.2027 -
Rémi Lemoine Chamois Niortais Active 156 / 160 40% 9 17.04.2027 -
João Neves Paris Saint-Germain Active 165 / 177 40% 8 11.04.2027 -
Osame Sahraoui LOSC Lille Active 144 / 149 40% 8 10.04.2027 -
Agustín Palavecino Cruz Azul Active 138 / 127 40% 11 09.04.2027 -
Achraf Hakimi Paris Saint-Germain Active 180 / 179 40% 8 08.04.2027 -
José Pachuca Puebla Active 111 / 121 40% 1 08.04.2027 -
Christ Inao Oulaï Fiorentina Lost 132 / 130 40% 1 08.04.2027 -
Riley Owen Trento Active 104 / 113 40% 1 08.04.2027 -
Vitinha Paris Saint-Germain Active 177 / 176 40% 6 07.04.2027 -
Thorgan Witsel KV Oostende Active 139 / 144 40% 4 27.03.2027 -
James Dornelly Peterborough United Active 103 / 111 40% 3 24.03.2027 -
Jack Hinshelwood Brighton Active 148 / 155 40% 2 24.03.2027 -
Joaquin Seys Club Brugge Active 128 / 122 40% 2 20.03.2027 -
Matías Soulé AS Roma Active 161 / 153 40% 1 18.03.2027 -
Matvey Kislyak CSKA Moscow Active 128 / 143 40% 1 15.03.2027 -
Orbelín Pineda Monterrey Active 143 / 135 40% 13 13.03.2027 -
Diego Rossi Monterrey Active 137 / 124 40% 2 10.03.2027 -
Khvicha Kvaratskhelia Paris Saint-Germain Active 168 / 156 40% 7 09.03.2027 -
Maghnes Akliouche Paris Saint-Germain Active 152 / 134 40% 1 05.03.2027 -
Jeppe Erenbjerg Racing Genk Active 125 / 124 40% 3 20.01.2027 -
Abdelkahar Kadri KAA Gent Active 127 / 120 40% 1 20.01.2027 -
Chris Lokesa Waasland-Beveren Active 120 / 114 40% 2 04.01.2027 -
Maksim Kireev KV Mechelen Active 117 / 119 40% 1 04.01.2027 -
William Balikwisha OH Leuven Active 116 / 110 40% 1 04.01.2027 -
Erick Sánchez OGC Nice Negotiating 139 / 139 66% 1 01.01.2027 -
Roberto Alvarado Monaco Negotiating 139 / 139 66% 1 01.01.2027 Approve
Marvin Keller Bayer Leverkusen Negotiating 136 / 137 67% 1 01.01.2027 -
Christian Tielemans KV Oostende Active 138 / 143 40% 2 25.12.2026 -
Mahdi Camara Stade Rennais Active 144 / 137 40% 3 20.12.2026 -
Tristan Degreef Anderlecht Active 121 / 116 40% 2 17.12.2026 -
Kevin Amaro Racing Genk Active 124 / 135 40% 1 17.12.2026 -
Antoine Colassin Charleroi Active 117 / 126 40% 1 16.12.2026 -
Ilias Sebaoui Sint-Truiden Active 129 / 117 40% 3 14.12.2026 -
Myron van Brederode KV Mechelen Active 116 / 120 40% 1 14.12.2026 -
Thomas Claes Zulte Waregem Active 116 / 117 40% 1 14.12.2026 -
Cisse Sandra Westerlo Active 109 / 118 40% 1 13.12.2026 -
Adriano Bertaccini Anderlecht Active 130 / 122 40% 2 10.12.2026 -
Gabriel Jesus Barcelona Active 159 / 146 40% 7 30.11.2026 -
Daan Heymans Racing Genk Active 122 / 125 40% 2 26.11.2026 -
Yan Diomandé Real Madrid Active 153 / 158 40% 1 26.11.2026 -
Ilay Camara Anderlecht Active 128 / 141 40% 1 26.11.2026 -
Mario Stroeykens Anderlecht Active 129 / 119 40% 1 18.11.2026 -
James Maddison Tottenham Active 158 / 162 40% 3 09.11.2026 -
Moses Simon Paris FC Active 137 / 131 40% 1 07.11.2026 Needs More Info
Mauro Arambarri River Plate Active 153 / 150 40% 2 06.11.2026 -
Yeremy Pino Crystal Palace Active 146 / 143 40% 1 06.11.2026 -
Nico González Newcastle United Active 157 / 162 40% 2 27.10.2026 Needs More Info
Iliman N'Diaye Everton Active 161 / 148 40% 3 22.10.2026 Monitor
Ousmane Dembélé Paris Saint-Germain Active 179 / 193 40% 1 16.10.2026 -
Gabriel Martinelli Brighton Active 158 / 159 40% 2 14.10.2026 -
Mateo Mendoza Godoy Cruz Active 119 / 127 40% 1 13.10.2026 -
Duvan Rangel La Equidad Active 134 / 129 40% 2 10.10.2026 -
Breel Embolo Atlanta United FC Active 139 / 129 40% 1 09.10.2026 -
Ayase Ueda LOSC Lille Active 134 / 145 40% 1 03.08.2026 -
Mohammed Kudus Tottenham Active 157 / 149 40% 1 02.08.2026 -